sensor_id;sensor_type;location;lat;lon;timestamp;P1;durP1;ratioP1;P2;durP2;ratioP2
73487;SDS011;61721;42.206;25.320;2023-08-21T00:00:31;7.38;;;3.95;;
73487;SDS011;61721;42.206;25.320;2023-08-21T00:02:59;6.68;;;3.72;;
73487;SDS011;61721;42.206;25.320;2023-08-21T00:05:26;6.22;;;3.22;;
73487;SDS011;61721;42.206;25.320;2023-08-21T00:07:54;6.15;;;3.20;;
73487;SDS011;61721;42.206;25.320;2023-08-21T00:10:21;7.55;;;3.53;;
73487;SDS011;61721;42.206;25.320;2023-08-21T00:12:48;8.30;;;3.55;;
73487;SDS011;61721;42.206;25.320;2023-08-21T00:15:15;5.82;;;3.92;;
73487;SDS011;61721;42.206;25.320;2023-08-21T00:17:42;6.43;;;3.60;;
73487;SDS011;61721;42.206;25.320;2023-08-21T00:20:11;5.85;;;3.60;;
73487;SDS011;61721;42.206;25.320;2023-08-21T00:22:38;6.25;;;3.25;;
73487;SDS011;61721;42.206;25.320;2023-08-21T00:25:05;6.47;;;3.40;;
73487;SDS011;61721;42.206;25.320;2023-08-21T00:27:33;5.50;;;3.47;;
73487;SDS011;61721;42.206;25.320;2023-08-21T00:30:00;6.97;;;3.33;;
73487;SDS011;61721;42.206;25.320;2023-08-21T00:32:27;5.95;;;3.38;;
73487;SDS011;61721;42.206;25.320;2023-08-21T00:34:54;4.97;;;3.40;;
73487;SDS011;61721;42.206;25.320;2023-08-21T00:37:23;5.47;;;3.72;;
73487;SDS011;61721;42.206;25.320;2023-08-21T00:39:50;7.57;;;3.78;;
73487;SDS011;61721;42.206;25.320;2023-08-21T00:42:17;6.07;;;3.80;;
73487;SDS011;61721;42.206;25.320;2023-08-21T00:44:44;15.85;;;4.25;;
73487;SDS011;61721;42.206;25.320;2023-08-21T00:47:11;5.53;;;3.63;;
73487;SDS011;61721;42.206;25.320;2023-08-21T00:49:38;7.22;;;3.60;;
73487;SDS011;61721;42.206;25.320;2023-08-21T00:52:06;5.25;;;3.30;;
73487;SDS011;61721;42.206;25.320;2023-08-21T00:57:15;8.35;;;3.47;;
73487;SDS011;61721;42.206;25.320;2023-08-21T00:59:43;5.78;;;3.30;;
73487;SDS011;61721;42.206;25.320;2023-08-21T01:02:10;5.63;;;3.20;;
73487;SDS011;61721;42.206;25.320;2023-08-21T01:04:37;7.78;;;3.38;;
73487;SDS011;61721;42.206;25.320;2023-08-21T01:07:04;8.60;;;3.20;;
73487;SDS011;61721;42.206;25.320;2023-08-21T01:09:36;5.95;;;3.30;;
73487;SDS011;61721;42.206;25.320;2023-08-21T01:12:12;10.82;;;3.47;;
73487;SDS011;61721;42.206;25.320;2023-08-21T01:14:51;7.45;;;3.47;;
73487;SDS011;61721;42.206;25.320;2023-08-21T01:17:24;6.55;;;3.30;;
73487;SDS011;61721;42.206;25.320;2023-08-21T01:19:53;8.20;;;3.92;;
73487;SDS011;61721;42.206;25.320;2023-08-21T01:22:24;8.65;;;3.55;;
73487;SDS011;61721;42.206;25.320;2023-08-21T01:24:54;7.82;;;3.83;;
73487;SDS011;61721;42.206;25.320;2023-08-21T01:27:21;7.40;;;3.40;;
73487;SDS011;61721;42.206;25.320;2023-08-21T01:29:48;6.43;;;3.47;;
73487;SDS011;61721;42.206;25.320;2023-08-21T01:32:20;5.97;;;3.50;;
73487;SDS011;61721;42.206;25.320;2023-08-21T01:34:53;13.70;;;3.75;;
73487;SDS011;61721;42.206;25.320;2023-08-21T01:37:34;6.63;;;3.30;;
73487;SDS011;61721;42.206;25.320;2023-08-21T01:40:05;11.02;;;4.20;;
73487;SDS011;61721;42.206;25.320;2023-08-21T01:42:32;7.63;;;3.67;;
73487;SDS011;61721;42.206;25.320;2023-08-21T01:44:59;6.13;;;3.40;;
73487;SDS011;61721;42.206;25.320;2023-08-21T01:47:27;8.10;;;4.07;;
73487;SDS011;61721;42.206;25.320;2023-08-21T01:49:54;6.07;;;3.60;;
73487;SDS011;61721;42.206;25.320;2023-08-21T01:52:21;6.50;;;3.50;;
73487;SDS011;61721;42.206;25.320;2023-08-21T01:54:49;7.57;;;4.03;;
73487;SDS011;61721;42.206;25.320;2023-08-21T01:57:18;7.25;;;3.95;;
73487;SDS011;61721;42.206;25.320;2023-08-21T01:59:45;6.80;;;3.40;;
73487;SDS011;61721;42.206;25.320;2023-08-21T02:02:12;6.57;;;3.78;;
73487;SDS011;61721;42.206;25.320;2023-08-21T02:04:39;6.72;;;3.35;;
73487;SDS011;61721;42.206;25.320;2023-08-21T02:07:07;6.35;;;3.75;;
73487;SDS011;61721;42.206;25.320;2023-08-21T02:09:34;5.10;;;3.45;;
73487;SDS011;61721;42.206;25.320;2023-08-21T02:12:01;11.52;;;3.72;;
73487;SDS011;61721;42.206;25.320;2023-08-21T02:14:30;13.68;;;3.95;;
73487;SDS011;61721;42.206;25.320;2023-08-21T02:16:57;8.93;;;3.83;;
73487;SDS011;61721;42.206;25.320;2023-08-21T02:22:10;9.50;;;4.15;;
73487;SDS011;61721;42.206;25.320;2023-08-21T02:24:37;6.68;;;3.88;;
73487;SDS011;61721;42.206;25.320;2023-08-21T02:27:04;9.57;;;3.55;;
73487;SDS011;61721;42.206;25.320;2023-08-21T02:29:40;7.93;;;4.28;;
73487;SDS011;61721;42.206;25.320;2023-08-21T02:32:07;8.10;;;4.05;;
73487;SDS011;61721;42.206;25.320;2023-08-21T02:34:34;10.15;;;4.57;;
73487;SDS011;61721;42.206;25.320;2023-08-21T02:37:02;8.13;;;4.25;;
73487;SDS011;61721;42.206;25.320;2023-08-21T02:39:30;7.63;;;4.13;;
73487;SDS011;61721;42.206;25.320;2023-08-21T02:41:57;9.02;;;4.70;;
73487;SDS011;61721;42.206;25.320;2023-08-21T02:44:24;9.45;;;4.53;;
73487;SDS011;61721;42.206;25.320;2023-08-21T02:46:52;13.40;;;5.47;;
73487;SDS011;61721;42.206;25.320;2023-08-21T02:49:19;11.20;;;5.50;;
73487;SDS011;61721;42.206;25.320;2023-08-21T02:51:47;11.32;;;5.72;;
73487;SDS011;61721;42.206;25.320;2023-08-21T02:54:14;12.07;;;6.82;;
73487;SDS011;61721;42.206;25.320;2023-08-21T02:56:41;17.65;;;8.80;;
73487;SDS011;61721;42.206;25.320;2023-08-21T02:59:08;16.45;;;8.02;;
73487;SDS011;61721;42.206;25.320;2023-08-21T03:01:35;14.73;;;8.48;;
73487;SDS011;61721;42.206;25.320;2023-08-21T03:04:03;19.58;;;8.98;;
73487;SDS011;61721;42.206;25.320;2023-08-21T03:06:30;20.15;;;9.93;;
73487;SDS011;61721;42.206;25.320;2023-08-21T03:08:57;15.68;;;9.10;;
73487;SDS011;61721;42.206;25.320;2023-08-21T03:11:24;17.98;;;8.15;;
73487;SDS011;61721;42.206;25.320;2023-08-21T03:13:53;12.23;;;6.65;;
73487;SDS011;61721;42.206;25.320;2023-08-21T03:16:20;16.08;;;6.85;;
73487;SDS011;61721;42.206;25.320;2023-08-21T03:18:54;14.88;;;6.88;;
73487;SDS011;61721;42.206;25.320;2023-08-21T03:21:24;13.93;;;7.25;;
73487;SDS011;61721;42.206;25.320;2023-08-21T03:23:51;14.38;;;7.80;;
73487;SDS011;61721;42.206;25.320;2023-08-21T03:26:21;11.63;;;6.50;;
73487;SDS011;61721;42.206;25.320;2023-08-21T03:28:48;8.45;;;6.20;;
73487;SDS011;61721;42.206;25.320;2023-08-21T03:31:15;25.52;;;6.32;;
73487;SDS011;61721;42.206;25.320;2023-08-21T03:33:42;13.60;;;6.20;;
73487;SDS011;61721;42.206;25.320;2023-08-21T03:36:09;13.63;;;6.22;;
73487;SDS011;61721;42.206;25.320;2023-08-21T03:38:38;12.23;;;5.93;;
73487;SDS011;61721;42.206;25.320;2023-08-21T03:41:05;12.48;;;5.68;;
73487;SDS011;61721;42.206;25.320;2023-08-21T03:43:32;11.05;;;5.43;;
73487;SDS011;61721;42.206;25.320;2023-08-21T03:45:59;11.32;;;5.43;;
73487;SDS011;61721;42.206;25.320;2023-08-21T03:48:26;9.65;;;5.68;;
73487;SDS011;61721;42.206;25.320;2023-08-21T03:50:53;10.55;;;5.47;;
73487;SDS011;61721;42.206;25.320;2023-08-21T03:53:20;10.23;;;5.53;;
73487;SDS011;61721;42.206;25.320;2023-08-21T03:55:49;9.65;;;5.15;;
73487;SDS011;61721;42.206;25.320;2023-08-21T03:58:16;15.63;;;6.13;;
73487;SDS011;61721;42.206;25.320;2023-08-21T04:00:43;9.32;;;5.40;;
73487;SDS011;61721;42.206;25.320;2023-08-21T04:03:10;9.15;;;5.00;;
73487;SDS011;61721;42.206;25.320;2023-08-21T04:05:47;11.43;;;4.60;;
73487;SDS011;61721;42.206;25.320;2023-08-21T04:08:14;11.10;;;5.20;;
73487;SDS011;61721;42.206;25.320;2023-08-21T04:10:41;10.07;;;4.28;;
73487;SDS011;61721;42.206;25.320;2023-08-21T04:13:10;13.30;;;5.03;;
73487;SDS011;61721;42.206;25.320;2023-08-21T04:15:37;12.85;;;5.05;;
73487;SDS011;61721;42.206;25.320;2023-08-21T04:18:04;9.50;;;4.82;;
73487;SDS011;61721;42.206;25.320;2023-08-21T04:20:31;9.52;;;4.65;;
73487;SDS011;61721;42.206;25.320;2023-08-21T04:22:58;10.07;;;4.65;;
73487;SDS011;61721;42.206;25.320;2023-08-21T04:25:25;7.68;;;4.35;;
73487;SDS011;61721;42.206;25.320;2023-08-21T04:27:52;9.88;;;4.68;;
73487;SDS011;61721;42.206;25.320;2023-08-21T04:30:21;7.90;;;4.03;;
73487;SDS011;61721;42.206;25.320;2023-08-21T04:32:48;6.38;;;3.50;;
73487;SDS011;61721;42.206;25.320;2023-08-21T04:35:15;7.45;;;3.85;;
73487;SDS011;61721;42.206;25.320;2023-08-21T04:37:43;6.50;;;4.10;;
73487;SDS011;61721;42.206;25.320;2023-08-21T04:40:10;12.27;;;3.63;;
73487;SDS011;61721;42.206;25.320;2023-08-21T04:42:38;7.10;;;3.45;;
73487;SDS011;61721;42.206;25.320;2023-08-21T04:45:05;11.10;;;3.78;;
73487;SDS011;61721;42.206;25.320;2023-08-21T04:47:35;12.65;;;4.25;;
73487;SDS011;61721;42.206;25.320;2023-08-21T04:50:02;7.57;;;3.75;;
73487;SDS011;61721;42.206;25.320;2023-08-21T04:52:29;8.95;;;3.53;;
73487;SDS011;61721;42.206;25.320;2023-08-21T04:54:57;10.65;;;4.03;;
73487;SDS011;61721;42.206;25.320;2023-08-21T04:57:24;9.07;;;3.42;;
73487;SDS011;61721;42.206;25.320;2023-08-21T04:59:51;8.18;;;3.80;;
73487;SDS011;61721;42.206;25.320;2023-08-21T05:02:18;8.48;;;3.83;;
73487;SDS011;61721;42.206;25.320;2023-08-21T05:04:47;13.35;;;5.30;;
73487;SDS011;61721;42.206;25.320;2023-08-21T05:07:21;17.90;;;4.60;;
73487;SDS011;61721;42.206;25.320;2023-08-21T05:09:48;10.43;;;3.92;;
73487;SDS011;61721;42.206;25.320;2023-08-21T05:12:15;11.70;;;3.97;;
73487;SDS011;61721;42.206;25.320;2023-08-21T05:14:42;27.08;;;4.88;;
73487;SDS011;61721;42.206;25.320;2023-08-21T05:17:09;10.80;;;4.70;;
73487;SDS011;61721;42.206;25.320;2023-08-21T05:19:36;18.17;;;4.72;;
73487;SDS011;61721;42.206;25.320;2023-08-21T05:22:04;11.60;;;4.25;;
73487;SDS011;61721;42.206;25.320;2023-08-21T05:24:32;11.98;;;4.15;;
73487;SDS011;61721;42.206;25.320;2023-08-21T05:26:59;10.02;;;4.05;;
73487;SDS011;61721;42.206;25.320;2023-08-21T05:29:26;8.63;;;4.68;;
73487;SDS011;61721;42.206;25.320;2023-08-21T05:31:53;9.80;;;4.40;;
73487;SDS011;61721;42.206;25.320;2023-08-21T05:34:20;8.52;;;4.13;;
73487;SDS011;61721;42.206;25.320;2023-08-21T05:36:47;13.10;;;4.43;;
73487;SDS011;61721;42.206;25.320;2023-08-21T05:39:15;13.60;;;4.70;;
73487;SDS011;61721;42.206;25.320;2023-08-21T05:41:44;15.70;;;4.22;;
73487;SDS011;61721;42.206;25.320;2023-08-21T05:44:11;14.65;;;5.97;;
73487;SDS011;61721;42.206;25.320;2023-08-21T05:46:38;14.27;;;4.47;;
73487;SDS011;61721;42.206;25.320;2023-08-21T05:49:05;11.48;;;4.55;;
73487;SDS011;61721;42.206;25.320;2023-08-21T05:51:34;22.70;;;4.70;;
73487;SDS011;61721;42.206;25.320;2023-08-21T05:54:02;11.70;;;4.53;;
73487;SDS011;61721;42.206;25.320;2023-08-21T05:56:30;13.63;;;4.93;;
73487;SDS011;61721;42.206;25.320;2023-08-21T05:58:57;11.98;;;4.55;;
73487;SDS011;61721;42.206;25.320;2023-08-21T06:01:24;13.43;;;4.72;;
73487;SDS011;61721;42.206;25.320;2023-08-21T06:03:51;7.70;;;4.00;;
73487;SDS011;61721;42.206;25.320;2023-08-21T06:06:19;9.00;;;4.38;;
73487;SDS011;61721;42.206;25.320;2023-08-21T06:08:47;14.52;;;4.57;;
73487;SDS011;61721;42.206;25.320;2023-08-21T06:11:14;7.40;;;3.90;;
73487;SDS011;61721;42.206;25.320;2023-08-21T06:13:42;9.82;;;3.88;;
73487;SDS011;61721;42.206;25.320;2023-08-21T06:16:09;10.50;;;4.15;;
73487;SDS011;61721;42.206;25.320;2023-08-21T06:18:37;12.90;;;4.28;;
73487;SDS011;61721;42.206;25.320;2023-08-21T06:21:04;11.07;;;3.90;;
73487;SDS011;61721;42.206;25.320;2023-08-21T06:23:31;11.48;;;4.15;;
73487;SDS011;61721;42.206;25.320;2023-08-21T06:25:58;11.15;;;4.22;;
73487;SDS011;61721;42.206;25.320;2023-08-21T06:28:26;14.20;;;4.72;;
73487;SDS011;61721;42.206;25.320;2023-08-21T06:30:57;9.60;;;4.05;;
73487;SDS011;61721;42.206;25.320;2023-08-21T06:33:28;6.78;;;3.83;;
73487;SDS011;61721;42.206;25.320;2023-08-21T06:35:57;9.93;;;3.88;;
73487;SDS011;61721;42.206;25.320;2023-08-21T06:38:24;9.02;;;3.33;;
73487;SDS011;61721;42.206;25.320;2023-08-21T06:40:51;11.13;;;4.00;;
73487;SDS011;61721;42.206;25.320;2023-08-21T06:43:18;8.32;;;3.80;;
73487;SDS011;61721;42.206;25.320;2023-08-21T06:45:46;6.25;;;3.50;;
73487;SDS011;61721;42.206;25.320;2023-08-21T06:48:17;8.52;;;3.63;;
73487;SDS011;61721;42.206;25.320;2023-08-21T06:50:44;9.02;;;3.35;;
73487;SDS011;61721;42.206;25.320;2023-08-21T06:53:11;6.35;;;3.13;;
73487;SDS011;61721;42.206;25.320;2023-08-21T06:55:38;14.13;;;4.13;;
73487;SDS011;61721;42.206;25.320;2023-08-21T06:58:06;7.63;;;3.42;;
73487;SDS011;61721;42.206;25.320;2023-08-21T07:00:33;11.40;;;4.10;;
73487;SDS011;61721;42.206;25.320;2023-08-21T07:03:00;8.52;;;3.55;;
73487;SDS011;61721;42.206;25.320;2023-08-21T07:05:29;6.60;;;3.83;;
73487;SDS011;61721;42.206;25.320;2023-08-21T07:07:56;22.20;;;4.00;;
73487;SDS011;61721;42.206;25.320;2023-08-21T07:10:24;13.35;;;4.40;;
73487;SDS011;61721;42.206;25.320;2023-08-21T07:12:51;7.95;;;3.03;;
73487;SDS011;61721;42.206;25.320;2023-08-21T07:15:19;7.82;;;3.40;;
73487;SDS011;61721;42.206;25.320;2023-08-21T07:17:47;8.98;;;3.20;;
73487;SDS011;61721;42.206;25.320;2023-08-21T07:20:15;11.98;;;3.83;;
73487;SDS011;61721;42.206;25.320;2023-08-21T07:22:44;6.45;;;3.30;;
73487;SDS011;61721;42.206;25.320;2023-08-21T07:25:11;5.93;;;3.20;;
73487;SDS011;61721;42.206;25.320;2023-08-21T07:27:39;5.50;;;3.05;;
73487;SDS011;61721;42.206;25.320;2023-08-21T07:30:06;9.13;;;3.22;;
73487;SDS011;61721;42.206;25.320;2023-08-21T07:32:34;8.02;;;3.40;;
73487;SDS011;61721;42.206;25.320;2023-08-21T07:35:01;13.80;;;3.50;;
73487;SDS011;61721;42.206;25.320;2023-08-21T07:37:29;5.28;;;3.30;;
73487;SDS011;61721;42.206;25.320;2023-08-21T07:39:57;12.82;;;3.22;;
73487;SDS011;61721;42.206;25.320;2023-08-21T07:42:24;11.23;;;3.40;;
73487;SDS011;61721;42.206;25.320;2023-08-21T07:44:52;9.75;;;3.72;;
73487;SDS011;61721;42.206;25.320;2023-08-21T07:47:20;9.68;;;3.70;;
73487;SDS011;61721;42.206;25.320;2023-08-21T07:49:48;9.15;;;3.63;;
73487;SDS011;61721;42.206;25.320;2023-08-21T07:52:15;7.78;;;3.67;;
73487;SDS011;61721;42.206;25.320;2023-08-21T07:54:42;8.07;;;3.15;;
73487;SDS011;61721;42.206;25.320;2023-08-21T07:57:12;9.43;;;3.55;;
73487;SDS011;61721;42.206;25.320;2023-08-21T07:59:49;6.63;;;3.17;;
73487;SDS011;61721;42.206;25.320;2023-08-21T08:02:17;8.43;;;3.47;;
73487;SDS011;61721;42.206;25.320;2023-08-21T08:04:44;8.77;;;3.22;;
73487;SDS011;61721;42.206;25.320;2023-08-21T08:07:11;6.97;;;2.90;;
73487;SDS011;61721;42.206;25.320;2023-08-21T08:09:38;8.57;;;2.60;;
73487;SDS011;61721;42.206;25.320;2023-08-21T08:12:06;9.48;;;2.80;;
73487;SDS011;61721;42.206;25.320;2023-08-21T08:14:35;7.10;;;3.10;;
73487;SDS011;61721;42.206;25.320;2023-08-21T08:17:02;6.57;;;2.92;;
73487;SDS011;61721;42.206;25.320;2023-08-21T08:19:30;5.93;;;3.10;;
73487;SDS011;61721;42.206;25.320;2023-08-21T08:21:57;6.97;;;2.50;;
73487;SDS011;61721;42.206;25.320;2023-08-21T08:24:24;8.27;;;2.95;;
73487;SDS011;61721;42.206;25.320;2023-08-21T08:26:51;5.10;;;2.63;;
73487;SDS011;61721;42.206;25.320;2023-08-21T08:29:18;7.35;;;2.70;;
73487;SDS011;61721;42.206;25.320;2023-08-21T08:31:46;7.75;;;2.85;;
73487;SDS011;61721;42.206;25.320;2023-08-21T08:34:13;7.88;;;2.50;;
73487;SDS011;61721;42.206;25.320;2023-08-21T08:36:43;7.65;;;2.05;;
73487;SDS011;61721;42.206;25.320;2023-08-21T08:39:10;5.97;;;2.63;;
73487;SDS011;61721;42.206;25.320;2023-08-21T08:41:38;5.45;;;2.30;;
73487;SDS011;61721;42.206;25.320;2023-08-21T08:44:10;8.43;;;2.58;;
73487;SDS011;61721;42.206;25.320;2023-08-21T08:46:42;6.20;;;2.40;;
73487;SDS011;61721;42.206;25.320;2023-08-21T08:49:11;8.27;;;2.35;;
73487;SDS011;61721;42.206;25.320;2023-08-21T08:51:39;8.07;;;2.50;;
73487;SDS011;61721;42.206;25.320;2023-08-21T08:54:09;6.15;;;2.38;;
73487;SDS011;61721;42.206;25.320;2023-08-21T08:59:05;7.03;;;2.40;;
73487;SDS011;61721;42.206;25.320;2023-08-21T09:01:34;6.10;;;2.20;;
73487;SDS011;61721;42.206;25.320;2023-08-21T09:04:02;4.47;;;2.20;;
73487;SDS011;61721;42.206;25.320;2023-08-21T09:06:31;5.97;;;2.20;;
73487;SDS011;61721;42.206;25.320;2023-08-21T09:08:59;11.23;;;2.50;;
73487;SDS011;61721;42.206;25.320;2023-08-21T09:11:26;8.45;;;2.53;;
73487;SDS011;61721;42.206;25.320;2023-08-21T09:13:54;4.82;;;2.33;;
73487;SDS011;61721;42.206;25.320;2023-08-21T09:16:23;8.50;;;2.55;;
73487;SDS011;61721;42.206;25.320;2023-08-21T09:18:51;7.30;;;2.30;;
73487;SDS011;61721;42.206;25.320;2023-08-21T09:21:21;6.80;;;2.20;;
73487;SDS011;61721;42.206;25.320;2023-08-21T09:23:56;4.30;;;2.30;;
73487;SDS011;61721;42.206;25.320;2023-08-21T09:26:29;6.70;;;2.20;;
73487;SDS011;61721;42.206;25.320;2023-08-21T09:28:58;10.70;;;2.47;;
73487;SDS011;61721;42.206;25.320;2023-08-21T09:31:29;6.82;;;1.88;;
73487;SDS011;61721;42.206;25.320;2023-08-21T09:33:57;5.50;;;2.15;;
73487;SDS011;61721;42.206;25.320;2023-08-21T09:38:55;5.22;;;2.03;;
73487;SDS011;61721;42.206;25.320;2023-08-21T09:41:22;4.15;;;1.90;;
73487;SDS011;61721;42.206;25.320;2023-08-21T09:43:50;4.65;;;2.20;;
73487;SDS011;61721;42.206;25.320;2023-08-21T09:46:21;4.43;;;2.10;;
73487;SDS011;61721;42.206;25.320;2023-08-21T09:48:51;8.50;;;1.95;;
73487;SDS011;61721;42.206;25.320;2023-08-21T09:51:21;9.68;;;2.50;;
73487;SDS011;61721;42.206;25.320;2023-08-21T09:53:48;5.43;;;1.90;;
73487;SDS011;61721;42.206;25.320;2023-08-21T09:56:18;8.20;;;2.10;;
73487;SDS011;61721;42.206;25.320;2023-08-21T09:58:47;5.55;;;2.03;;
73487;SDS011;61721;42.206;25.320;2023-08-21T10:01:15;4.60;;;1.85;;
73487;SDS011;61721;42.206;25.320;2023-08-21T10:06:13;5.53;;;1.85;;
73487;SDS011;61721;42.206;25.320;2023-08-21T10:08:44;3.95;;;1.90;;
73487;SDS011;61721;42.206;25.320;2023-08-21T10:11:14;5.45;;;1.92;;
73487;SDS011;61721;42.206;25.320;2023-08-21T10:13:48;7.65;;;2.58;;
73487;SDS011;61721;42.206;25.320;2023-08-21T10:16:18;3.85;;;1.95;;
73487;SDS011;61721;42.206;25.320;2023-08-21T10:18:46;8.43;;;2.30;;
73487;SDS011;61721;42.206;25.320;2023-08-21T10:21:14;5.97;;;2.17;;
73487;SDS011;61721;42.206;25.320;2023-08-21T10:23:42;7.35;;;1.90;;
73487;SDS011;61721;42.206;25.320;2023-08-21T10:26:18;5.63;;;2.08;;
73487;SDS011;61721;42.206;25.320;2023-08-21T10:28:48;4.10;;;1.80;;
73487;SDS011;61721;42.206;25.320;2023-08-21T10:34:03;6.38;;;1.80;;
73487;SDS011;61721;42.206;25.320;2023-08-21T10:36:38;5.15;;;2.10;;
73487;SDS011;61721;42.206;25.320;2023-08-21T10:39:12;3.88;;;1.80;;
73487;SDS011;61721;42.206;25.320;2023-08-21T10:41:43;8.23;;;2.33;;
73487;SDS011;61721;42.206;25.320;2023-08-21T10:44:33;8.70;;;2.40;;
73487;SDS011;61721;42.206;25.320;2023-08-21T10:47:14;5.10;;;2.08;;
73487;SDS011;61721;42.206;25.320;2023-08-21T10:49:43;6.97;;;3.05;;
73487;SDS011;61721;42.206;25.320;2023-08-21T10:52:11;4.85;;;2.50;;
73487;SDS011;61721;42.206;25.320;2023-08-21T10:54:45;5.65;;;2.00;;
73487;SDS011;61721;42.206;25.320;2023-08-21T10:57:14;4.32;;;2.10;;
73487;SDS011;61721;42.206;25.320;2023-08-21T10:59:49;6.07;;;2.55;;
73487;SDS011;61721;42.206;25.320;2023-08-21T11:02:20;4.88;;;1.75;;
73487;SDS011;61721;42.206;25.320;2023-08-21T11:04:52;5.38;;;1.98;;
73487;SDS011;61721;42.206;25.320;2023-08-21T11:07:20;4.50;;;2.10;;
73487;SDS011;61721;42.206;25.320;2023-08-21T11:09:48;12.40;;;2.85;;
73487;SDS011;61721;42.206;25.320;2023-08-21T11:12:18;6.30;;;1.92;;
73487;SDS011;61721;42.206;25.320;2023-08-21T11:14:46;4.18;;;2.17;;
73487;SDS011;61721;42.206;25.320;2023-08-21T11:17:13;9.30;;;2.30;;
73487;SDS011;61721;42.206;25.320;2023-08-21T11:19:41;3.70;;;2.10;;
73487;SDS011;61721;42.206;25.320;2023-08-21T11:22:08;4.75;;;2.15;;
73487;SDS011;61721;42.206;25.320;2023-08-21T11:24:44;4.95;;;2.00;;
73487;SDS011;61721;42.206;25.320;2023-08-21T11:27:13;4.78;;;2.40;;
73487;SDS011;61721;42.206;25.320;2023-08-21T11:29:43;8.80;;;2.35;;
73487;SDS011;61721;42.206;25.320;2023-08-21T11:32:14;5.10;;;2.20;;
73487;SDS011;61721;42.206;25.320;2023-08-21T11:34:42;7.68;;;1.83;;
73487;SDS011;61721;42.206;25.320;2023-08-21T11:37:15;5.80;;;2.20;;
73487;SDS011;61721;42.206;25.320;2023-08-21T11:39:44;6.13;;;2.20;;
73487;SDS011;61721;42.206;25.320;2023-08-21T11:42:12;4.47;;;2.42;;
73487;SDS011;61721;42.206;25.320;2023-08-21T11:44:43;4.80;;;2.15;;
73487;SDS011;61721;42.206;25.320;2023-08-21T11:47:11;6.55;;;2.35;;
73487;SDS011;61721;42.206;25.320;2023-08-21T11:49:39;8.90;;;2.40;;
73487;SDS011;61721;42.206;25.320;2023-08-21T11:52:08;5.45;;;2.20;;
73487;SDS011;61721;42.206;25.320;2023-08-21T11:54:35;10.32;;;2.50;;
73487;SDS011;61721;42.206;25.320;2023-08-21T11:57:05;10.05;;;2.40;;
73487;SDS011;61721;42.206;25.320;2023-08-21T11:59:33;7.63;;;2.33;;
73487;SDS011;61721;42.206;25.320;2023-08-21T12:02:05;7.70;;;2.45;;
73487;SDS011;61721;42.206;25.320;2023-08-21T12:04:36;6.45;;;1.85;;
73487;SDS011;61721;42.206;25.320;2023-08-21T12:07:03;6.28;;;2.42;;
73487;SDS011;61721;42.206;25.320;2023-08-21T12:09:31;6.43;;;2.58;;
73487;SDS011;61721;42.206;25.320;2023-08-21T12:11:58;5.20;;;2.10;;
73487;SDS011;61721;42.206;25.320;2023-08-21T12:14:27;6.20;;;2.30;;
73487;SDS011;61721;42.206;25.320;2023-08-21T12:16:55;7.80;;;2.38;;
73487;SDS011;61721;42.206;25.320;2023-08-21T12:19:23;8.57;;;2.30;;
73487;SDS011;61721;42.206;25.320;2023-08-21T12:24:18;4.68;;;2.10;;
73487;SDS011;61721;42.206;25.320;2023-08-21T12:26:46;6.28;;;2.38;;
73487;SDS011;61721;42.206;25.320;2023-08-21T12:29:13;7.75;;;2.33;;
73487;SDS011;61721;42.206;25.320;2023-08-21T12:31:41;7.00;;;2.63;;
73487;SDS011;61721;42.206;25.320;2023-08-21T12:34:08;7.05;;;2.60;;
73487;SDS011;61721;42.206;25.320;2023-08-21T12:36:38;6.72;;;2.33;;
73487;SDS011;61721;42.206;25.320;2023-08-21T12:39:06;7.80;;;2.42;;
73487;SDS011;61721;42.206;25.320;2023-08-21T12:41:34;7.25;;;2.45;;
73487;SDS011;61721;42.206;25.320;2023-08-21T12:44:07;8.27;;;2.72;;
73487;SDS011;61721;42.206;25.320;2023-08-21T12:46:35;6.90;;;2.22;;
73487;SDS011;61721;42.206;25.320;2023-08-21T12:49:02;6.00;;;2.22;;
73487;SDS011;61721;42.206;25.320;2023-08-21T12:51:29;5.68;;;2.22;;
73487;SDS011;61721;42.206;25.320;2023-08-21T12:53:58;5.80;;;2.25;;
73487;SDS011;61721;42.206;25.320;2023-08-21T12:56:25;7.32;;;2.40;;
73487;SDS011;61721;42.206;25.320;2023-08-21T12:58:53;5.10;;;2.67;;
73487;SDS011;61721;42.206;25.320;2023-08-21T13:01:20;6.25;;;2.72;;
73487;SDS011;61721;42.206;25.320;2023-08-21T13:03:47;6.95;;;2.55;;
73487;SDS011;61721;42.206;25.320;2023-08-21T13:06:14;4.43;;;2.40;;
73487;SDS011;61721;42.206;25.320;2023-08-21T13:08:45;10.45;;;2.58;;
73487;SDS011;61721;42.206;25.320;2023-08-21T13:11:20;17.85;;;3.13;;
73487;SDS011;61721;42.206;25.320;2023-08-21T13:13:51;4.10;;;2.10;;
73487;SDS011;61721;42.206;25.320;2023-08-21T13:16:19;6.80;;;2.40;;
73487;SDS011;61721;42.206;25.320;2023-08-21T13:18:47;38.70;;;3.85;;
73487;SDS011;61721;42.206;25.320;2023-08-21T13:21:14;6.78;;;2.53;;
73487;SDS011;61721;42.206;25.320;2023-08-21T13:23:42;4.93;;;2.40;;
73487;SDS011;61721;42.206;25.320;2023-08-21T13:26:11;8.73;;;2.42;;
73487;SDS011;61721;42.206;25.320;2023-08-21T13:28:40;6.30;;;2.85;;
73487;SDS011;61721;42.206;25.320;2023-08-21T13:31:07;4.97;;;2.40;;
73487;SDS011;61721;42.206;25.320;2023-08-21T13:33:45;6.65;;;2.40;;
73487;SDS011;61721;42.206;25.320;2023-08-21T13:36:13;5.35;;;2.40;;
73487;SDS011;61721;42.206;25.320;2023-08-21T13:38:42;4.70;;;2.63;;
73487;SDS011;61721;42.206;25.320;2023-08-21T13:41:10;5.43;;;2.70;;
73487;SDS011;61721;42.206;25.320;2023-08-21T13:43:37;7.32;;;2.63;;
73487;SDS011;61721;42.206;25.320;2023-08-21T13:46:06;7.20;;;2.60;;
73487;SDS011;61721;42.206;25.320;2023-08-21T13:48:34;6.22;;;2.50;;
73487;SDS011;61721;42.206;25.320;2023-08-21T13:51:01;6.30;;;2.33;;
73487;SDS011;61721;42.206;25.320;2023-08-21T13:53:29;7.35;;;2.42;;
73487;SDS011;61721;42.206;25.320;2023-08-21T13:55:56;7.43;;;2.63;;
73487;SDS011;61721;42.206;25.320;2023-08-21T13:58:24;9.18;;;2.40;;
73487;SDS011;61721;42.206;25.320;2023-08-21T14:00:51;9.05;;;2.40;;
73487;SDS011;61721;42.206;25.320;2023-08-21T14:03:20;9.93;;;2.53;;
73487;SDS011;61721;42.206;25.320;2023-08-21T14:08:16;6.78;;;2.30;;
73487;SDS011;61721;42.206;25.320;2023-08-21T14:10:43;5.00;;;2.50;;
73487;SDS011;61721;42.206;25.320;2023-08-21T14:13:10;7.47;;;2.50;;
73487;SDS011;61721;42.206;25.320;2023-08-21T14:15:38;7.53;;;2.60;;
73487;SDS011;61721;42.206;25.320;2023-08-21T14:18:05;6.03;;;2.80;;
73487;SDS011;61721;42.206;25.320;2023-08-21T14:20:35;7.35;;;2.47;;
73487;SDS011;61721;42.206;25.320;2023-08-21T14:23:05;7.43;;;2.63;;
73487;SDS011;61721;42.206;25.320;2023-08-21T14:25:35;8.13;;;2.70;;
73487;SDS011;61721;42.206;25.320;2023-08-21T14:28:03;6.30;;;2.92;;
73487;SDS011;61721;42.206;25.320;2023-08-21T14:30:31;9.88;;;2.65;;
73487;SDS011;61721;42.206;25.320;2023-08-21T14:32:59;10.65;;;2.97;;
73487;SDS011;61721;42.206;25.320;2023-08-21T14:37:55;7.75;;;2.97;;
73487;SDS011;61721;42.206;25.320;2023-08-21T14:40:23;8.02;;;3.00;;
73487;SDS011;61721;42.206;25.320;2023-08-21T14:42:51;10.70;;;2.65;;
73487;SDS011;61721;42.206;25.320;2023-08-21T14:45:19;8.05;;;2.67;;
73487;SDS011;61721;42.206;25.320;2023-08-21T14:47:53;6.55;;;2.80;;
73487;SDS011;61721;42.206;25.320;2023-08-21T14:50:21;6.85;;;2.70;;
73487;SDS011;61721;42.206;25.320;2023-08-21T14:52:48;7.78;;;2.67;;
73487;SDS011;61721;42.206;25.320;2023-08-21T14:55:16;8.20;;;2.72;;
73487;SDS011;61721;42.206;25.320;2023-08-21T14:57:44;12.18;;;3.80;;
73487;SDS011;61721;42.206;25.320;2023-08-21T15:00:12;6.15;;;2.65;;